Time;durP1;ratioP1;P1;durP2;ratioP2;P2;SDS_P1;SDS_P2;PMS_P1;PMS_P2;Temp;Humidity;BMP_temperature;BMP_pressure;BME280_temperature;BME280_humidity;BME280_pressure;Samples;Min_cycle;Max_cycle;Signal;HPM_P1;HPM_P2
2023/01/07 00:01:46;;;;;;;;;;;;;;;18.72;48.14;101373.03;5153520;27;20382;-56
2023/01/07 00:04:12;;;;;;;;;;;;;;;18.72;48.27;101367.50;5152234;27;19930;-56
2023/01/07 00:06:38;;;;;;;;;;;;;;;18.73;48.05;101360.06;5141701;27;19972;-56
2023/01/07 00:09:04;;;;;;;;;;;;;;;18.72;48.08;101359.22;5132524;28;19930;-56
2023/01/07 00:11:31;;;;;;;;;;;;;;;18.73;47.95;101358.13;5114314;28;19924;-56
2023/01/07 00:13:57;;;;;;;;;;;;;;;18.73;48.02;101349.84;5114020;28;19967;-56
2023/01/07 00:16:23;;;;;;;;;;;;;;;18.72;48.08;101345.44;5126376;27;19980;-56
2023/01/07 00:18:50;;;;;;;;;;;;;;;18.73;48.32;101351.78;5152887;27;19949;-56
2023/01/07 00:21:16;;;;;;;;;;;;;;;18.73;48.14;101344.31;5151751;27;19930;-56
2023/01/07 00:23:42;;;;;;;;;;;;;;;18.73;48.17;101349.84;5151303;27;20008;-56
2023/01/07 00:26:08;;;;;;;;;;;;;;;18.73;48.29;101351.78;5145482;27;19982;-56
2023/01/07 00:28:35;;;;;;;;;;;;;;;18.73;48.15;101346.25;5138075;27;19971;-56
2023/01/07 00:31:01;;;;;;;;;;;;;;;18.73;48.17;101346.25;5130575;28;20408;-56
2023/01/07 00:33:27;;;;;;;;;;;;;;;18.72;48.36;101348.19;5132116;28;19985;-56
2023/01/07 00:36:00;;;;;;;;;;;;;;;18.73;48.31;101344.31;5134253;27;19930;-56
2023/01/07 00:38:26;;;;;;;;;;;;;;;18.72;48.25;101337.16;5134324;27;19927;-56
2023/01/07 00:40:52;;;;;;;;;;;;;;;18.73;48.08;101336.06;5153006;27;19924;-56
2023/01/07 00:43:17;;;;;;;;;;;;;;;18.73;48.20;101332.47;5152660;27;19979;-57
2023/01/07 00:45:43;;;;;;;;;;;;;;;18.72;48.26;101331.63;5157333;27;20264;-56
2023/01/07 00:48:08;;;;;;;;;;;;;;;18.72;48.04;101330.81;5131630;28;19923;-57
2023/01/07 00:50:34;;;;;;;;;;;;;;;18.72;47.98;101331.63;5131642;28;19923;-56
2023/01/07 00:53:00;;;;;;;;;;;;;;;18.72;48.27;101328.88;5113651;28;19927;-56
2023/01/07 00:55:26;;;;;;;;;;;;;;;18.73;48.36;101333.28;5131598;27;20294;-56
2023/01/07 00:57:51;;;;;;;;;;;;;;;18.72;48.24;101320.59;5113503;27;19924;-55
2023/01/07 01:00:18;;;;;;;;;;;;;;;18.72;48.13;101320.59;5151831;27;20283;-56
2023/01/07 01:02:43;;;;;;;;;;;;;;;18.73;48.32;101327.78;5151806;27;20384;-56
2023/01/07 01:05:09;;;;;;;;;;;;;;;18.72;48.04;101328.88;5133923;27;19964;-56
2023/01/07 01:07:35;;;;;;;;;;;;;;;18.73;47.99;101318.66;5132784;27;19976;-56
2023/01/07 01:10:00;;;;;;;;;;;;;;;18.73;48.04;101313.97;5131329;28;19931;-56
2023/01/07 01:12:26;;;;;;;;;;;;;;;18.73;48.16;101313.16;5131495;28;19923;-56
2023/01/07 01:14:51;;;;;;;;;;;;;;;18.72;48.03;101312.31;5113068;28;20390;-56
2023/01/07 01:17:17;;;;;;;;;;;;;;;18.72;48.38;101306.81;5133324;27;19931;-56
2023/01/07 01:19:43;;;;;;;;;;;;;;;18.73;48.22;101304.88;5152100;27;20272;-56
2023/01/07 01:22:08;;;;;;;;;;;;;;;18.73;48.04;101310.38;5152406;27;20062;-56
2023/01/07 01:24:34;;;;;;;;;;;;;;;18.73;48.16;101300.19;5133161;27;19923;-56
2023/01/07 01:26:59;;;;;;;;;;;;;;;18.72;48.11;101303.22;5152158;27;19934;-56
2023/01/07 01:29:25;;;;;;;;;;;;;;;18.73;48.12;101310.38;5144390;27;19924;-56
2023/01/07 01:31:50;;;;;;;;;;;;;;;18.73;48.14;101310.38;5129968;27;19931;-56
2023/01/07 01:34:16;;;;;;;;;;;;;;;18.72;48.14;101298.53;5131022;28;19927;-56
2023/01/07 01:36:42;;;;;;;;;;;;;;;18.73;47.98;101299.34;5131168;27;19932;-56
2023/01/07 01:39:07;;;;;;;;;;;;;;;18.73;48.23;101297.41;5131304;28;20302;-56
2023/01/07 01:41:33;;;;;;;;;;;;;;;18.73;48.40;101300.19;5131319;28;19924;-56
2023/01/07 01:43:59;;;;;;;;;;;;;;;18.73;48.19;101291.06;5112581;28;20370;-56
2023/01/07 01:46:30;;;;;;;;;;;;;;;18.73;48.17;101285.56;5147254;27;19927;-56
2023/01/07 01:48:57;;;;;;;;;;;;;;;18.73;48.06;101297.41;5131339;28;20016;-56
2023/01/07 01:51:24;;;;;;;;;;;;;;;18.73;48.30;101297.41;5130797;28;20389;-56
2023/01/07 01:53:49;;;;;;;;;;;;;;;18.73;48.16;101291.06;5130793;28;19923;-56
2023/01/07 01:56:17;;;;;;;;;;;;;;;18.73;48.20;101294.66;5131086;27;19945;-56
2023/01/07 01:58:44;;;;;;;;;;;;;;;18.73;48.25;101296.59;5119591;27;19965;-56
2023/01/07 02:01:10;;;;;;;;;;;;;;;18.73;48.35;101291.06;5132628;27;20009;-56
2023/01/07 02:03:35;;;;;;;;;;;;;;;18.73;48.17;101296.59;5151346;27;20065;-56
2023/01/07 02:06:01;;;;;;;;;;;;;;;18.73;48.25;101293.84;5145284;27;19930;-56
2023/01/07 02:08:27;;;;;;;;;;;;;;;18.72;48.03;101293.00;5130870;28;20332;-56
2023/01/07 02:10:59;;;;;;;;;;;;;;;18.73;48.22;101278.09;5111865;28;19928;-56
2023/01/07 02:13:45;;;;;;;;;;;;;;;18.72;48.30;101284.72;5130854;28;19950;-56
2023/01/07 02:19:01;;;;;;;;;;;;;;;18.73;48.34;101282.81;5189995;27;19925;-56
2023/01/07 02:21:47;;;;;;;;;;;;;;;18.73;48.32;101274.53;5188787;27;19974;-56
2023/01/07 02:24:32;;;;;;;;;;;;;;;18.73;48.22;101274.53;5173796;27;19926;-56
2023/01/07 02:27:02;;;;;;;;;;;;;;;18.73;48.16;101280.03;5159560;27;19927;-56
2023/01/07 02:29:37;;;;;;;;;;;;;;;18.73;48.08;101278.09;5160491;27;19962;-56
2023/01/07 02:32:17;;;;;;;;;;;;;;;18.73;48.32;101274.53;5148105;27;19970;-56
2023/01/07 02:34:47;;;;;;;;;;;;;;;18.73;48.09;101271.75;5147672;27;20331;-56
2023/01/07 02:37:33;;;;;;;;;;;;;;;18.73;48.35;101266.25;5163860;27;19923;-56
2023/01/07 02:40:00;;;;;;;;;;;;;;;18.73;48.03;101271.75;5153068;27;20363;-56
2023/01/07 02:42:40;;;;;;;;;;;;;;;18.73;48.23;101275.34;5149730;27;20355;-56
2023/01/07 02:45:25;;;;;;;;;;;;;;;18.73;48.22;101269.00;5174831;27;19975;-56
2023/01/07 02:47:55;;;;;;;;;;;;;;;18.73;48.19;101275.34;5151845;27;19966;-56
2023/01/07 02:50:21;;;;;;;;;;;;;;;18.72;48.03;101268.19;5168686;27;19946;-56
2023/01/07 02:52:46;;;;;;;;;;;;;;;18.73;48.07;101263.50;5168649;27;20678;-56
2023/01/07 02:55:13;;;;;;;;;;;;;;;18.73;48.10;101269.84;5167950;27;19925;-56
2023/01/07 02:57:51;;;;;;;;;;;;;;;18.73;48.28;101266.25;5167979;27;19923;-56
2023/01/07 03:00:20;;;;;;;;;;;;;;;18.72;48.35;101257.16;5147367;27;19962;-56
2023/01/07 03:02:51;;;;;;;;;;;;;;;18.73;48.33;101250.53;5140929;27;20399;-56
2023/01/07 03:05:21;;;;;;;;;;;;;;;18.72;48.14;101254.38;5126610;28;19924;-56
2023/01/07 03:07:54;;;;;;;;;;;;;;;18.73;48.07;101255.22;5145682;27;20407;-56
2023/01/07 03:10:24;;;;;;;;;;;;;;;18.73;48.20;101252.44;5128795;27;19966;-56
2023/01/07 03:12:53;;;;;;;;;;;;;;;18.72;48.07;101248.03;5147465;27;19930;-56
2023/01/07 03:15:21;;;;;;;;;;;;;;;18.72;48.13;101248.03;5128449;27;19967;-53
2023/01/07 03:17:48;;;;;;;;;;;;;;;18.72;48.16;101232.31;5128042;27;19930;-56
2023/01/07 03:20:13;;;;;;;;;;;;;;;18.73;48.08;101235.91;5128646;27;20371;-56
2023/01/07 03:22:39;;;;;;;;;;;;;;;18.73;48.21;101236.72;5147510;27;19933;-56
2023/01/07 03:25:04;;;;;;;;;;;;;;;18.73;48.39;101239.47;5146605;27;20311;-56
2023/01/07 03:27:31;;;;;;;;;;;;;;;18.72;48.15;101237.84;5128288;27;19924;-56
2023/01/07 03:29:56;;;;;;;;;;;;;;;18.72;48.07;101237.84;5101778;28;20274;-57
2023/01/07 03:32:23;;;;;;;;;;;;;;;18.72;48.04;101235.06;5112741;28;19924;-56
2023/01/07 03:34:49;;;;;;;;;;;;;;;18.72;48.15;101237.84;5112684;28;19988;-56
2023/01/07 03:37:16;;;;;;;;;;;;;;;18.73;48.07;101235.91;5129026;28;19923;-56
2023/01/07 03:39:41;;;;;;;;;;;;;;;18.73;48.04;101238.66;5114717;28;19980;-56
2023/01/07 03:42:39;;;;;;;;;;;;;;;18.72;48.05;101229.56;5132680;27;19923;-56
2023/01/07 03:44:53;;;;;;;;;;;;;;;18.73;48.02;101230.38;5122237;27;19923;-56
2023/01/07 03:47:19;;;;;;;;;;;;;;;18.73;48.02;101225.69;5119385;27;19977;-56
2023/01/07 03:49:44;;;;;;;;;;;;;;;18.72;48.35;101221.28;5093629;28;20398;-56
2023/01/07 03:52:10;;;;;;;;;;;;;;;18.73;48.14;101219.34;5112630;28;19932;-56
2023/01/07 03:54:35;;;;;;;;;;;;;;;18.73;48.08;101222.94;5093562;28;20364;-56
2023/01/07 03:57:01;;;;;;;;;;;;;;;18.73;48.04;101216.59;5112059;28;19924;-56
2023/01/07 03:59:27;;;;;;;;;;;;;;;18.73;48.35;101219.34;5107292;28;19924;-56
2023/01/07 04:01:52;;;;;;;;;;;;;;;18.73;48.05;101211.06;5132961;28;20040;-56
2023/01/07 04:04:18;;;;;;;;;;;;;;;18.74;48.33;101210.00;5132446;27;19927;-56
2023/01/07 04:06:44;;;;;;;;;;;;;;;18.73;48.23;101209.13;5120467;28;19924;-56
2023/01/07 04:09:10;;;;;;;;;;;;;;;18.73;48.23;101205.56;5111985;28;20041;-56
2023/01/07 04:11:35;;;;;;;;;;;;;;;18.73;48.25;101205.56;5093511;28;19924;-55
2023/01/07 04:14:01;;;;;;;;;;;;;;;18.73;47.98;101200.03;5111857;28;19972;-56
2023/01/07 04:16:27;;;;;;;;;;;;;;;18.74;48.15;101210.00;5111534;28;19935;-56
2023/01/07 04:18:52;;;;;;;;;;;;;;;18.72;48.26;101196.44;5111272;28;19927;-56
2023/01/07 04:21:18;;;;;;;;;;;;;;;18.73;48.38;101198.09;5111989;28;20004;-56
2023/01/07 04:23:43;;;;;;;;;;;;;;;18.72;48.16;101193.69;5132762;27;19931;-56
2023/01/07 04:26:09;;;;;;;;;;;;;;;18.73;48.17;101189.00;5145201;27;20360;-56
2023/01/07 04:28:35;;;;;;;;;;;;;;;18.73;48.09;101189.00;5131759;27;19938;-56
2023/01/07 04:31:00;;;;;;;;;;;;;;;18.73;48.04;101189.00;5113478;28;19949;-56
2023/01/07 04:33:26;;;;;;;;;;;;;;;18.73;48.07;101175.19;5132175;28;19927;-56
2023/01/07 04:35:51;;;;;;;;;;;;;;;18.73;48.35;101175.19;5132000;28;20020;-56
2023/01/07 04:38:17;;;;;;;;;;;;;;;18.72;48.05;101160.59;5132116;28;19923;-56
2023/01/07 04:40:43;;;;;;;;;;;;;;;18.72;48.08;101163.34;5131297;27;20264;-56
2023/01/07 04:43:08;;;;;;;;;;;;;;;18.72;48.08;101157.81;5113285;28;19952;-56
2023/01/07 04:45:34;;;;;;;;;;;;;;;18.74;48.04;101149.28;5131368;28;19923;-56
2023/01/07 04:47:59;;;;;;;;;;;;;;;18.73;48.02;101147.63;5131796;28;19923;-56
2023/01/07 04:50:25;;;;;;;;;;;;;;;18.73;48.31;101144.84;5131925;28;19934;-56
2023/01/07 04:52:50;;;;;;;;;;;;;;;18.72;48.00;101135.75;5131807;28;20359;-56
2023/01/07 04:55:16;;;;;;;;;;;;;;;18.74;48.03;101135.50;5131034;28;19924;-56
2023/01/07 04:57:42;;;;;;;;;;;;;;;18.74;48.36;101129.97;5131380;28;19924;-56
2023/01/07 05:00:07;;;;;;;;;;;;;;;18.73;48.30;101125.53;5131343;28;20488;-56
2023/01/07 05:02:33;;;;;;;;;;;;;;;18.73;48.35;101122.78;5131826;28;20073;-56
2023/01/07 05:04:59;;;;;;;;;;;;;;;18.74;48.16;101129.97;5113011;28;20010;-56
2023/01/07 05:07:24;;;;;;;;;;;;;;;18.73;48.06;101120.84;5131321;27;19927;-56
2023/01/07 05:09:50;;;;;;;;;;;;;;;18.73;48.39;101122.78;5131738;28;19923;-56
2023/01/07 05:12:15;;;;;;;;;;;;;;;18.73;48.04;101111.75;5131725;28;20392;-56
2023/01/07 05:14:41;;;;;;;;;;;;;;;18.73;48.07;101122.78;5131471;28;19924;-56
2023/01/07 05:17:07;;;;;;;;;;;;;;;18.73;47.98;101109.00;5131225;28;19935;-56
2023/01/07 05:19:32;;;;;;;;;;;;;;;18.73;48.37;101111.75;5131377;28;19927;-56
2023/01/07 05:21:58;;;;;;;;;;;;;;;18.73;48.21;101111.75;5131426;28;19927;-56
2023/01/07 05:24:26;;;;;;;;;;;;;;;18.73;48.16;101109.00;5130985;27;20402;-56
2023/01/07 05:26:51;;;;;;;;;;;;;;;18.73;48.24;101114.50;5118415;27;19924;-56
2023/01/07 05:29:17;;;;;;;;;;;;;;;18.74;48.20;101108.72;5126062;27;19931;-56
2023/01/07 05:31:42;;;;;;;;;;;;;;;18.73;48.05;101111.75;5131146;28;20032;-56
2023/01/07 05:34:08;;;;;;;;;;;;;;;18.72;48.13;101113.69;5130884;28;19984;-56
2023/01/07 05:36:34;;;;;;;;;;;;;;;18.73;48.02;101114.50;5102261;28;19924;-56
2023/01/07 05:38:59;;;;;;;;;;;;;;;18.73;48.05;101107.06;5110591;28;19977;-56
2023/01/07 05:41:25;;;;;;;;;;;;;;;18.73;48.01;101107.06;5110856;28;19950;-56
2023/01/07 05:43:50;;;;;;;;;;;;;;;18.74;48.16;101102.41;5110578;28;19977;-56
2023/01/07 05:46:16;;;;;;;;;;;;;;;18.73;48.33;101096.03;5110314;28;20299;-56
2023/01/07 05:48:41;;;;;;;;;;;;;;;18.73;48.34;101092.44;5110814;28;19931;-56
2023/01/07 05:51:07;;;;;;;;;;;;;;;18.72;48.33;101091.59;5110316;28;19973;-56
2023/01/07 05:53:33;;;;;;;;;;;;;;;18.74;47.95;101094.13;5109991;28;20402;-56
2023/01/07 05:55:58;;;;;;;;;;;;;;;18.73;48.36;101093.25;5110188;28;19934;-56
2023/01/07 05:58:24;;;;;;;;;;;;;;;18.73;48.32;101098.78;5096087;28;20371;-56
2023/01/07 06:00:50;;;;;;;;;;;;;;;18.73;48.26;101097.94;5111693;28;20018;-56
2023/01/07 06:03:15;;;;;;;;;;;;;;;18.72;48.06;101094.38;5130762;27;19935;-56
2023/01/07 06:05:41;;;;;;;;;;;;;;;18.73;48.11;101092.44;5127613;28;20429;-56
2023/01/07 06:08:07;;;;;;;;;;;;;;;18.73;47.99;101084.16;5109908;28;19939;-56
2023/01/07 06:10:34;;;;;;;;;;;;;;;18.73;48.19;101084.16;5110410;28;20304;-56
2023/01/07 06:13:00;;;;;;;;;;;;;;;18.72;48.17;101086.09;5092108;28;20491;-56
2023/01/07 06:15:26;;;;;;;;;;;;;;;18.73;48.09;101081.41;5109979;28;19924;-56
2023/01/07 06:17:52;;;;;;;;;;;;;;;18.73;48.04;101082.22;5110088;28;19930;-56
2023/01/07 06:20:17;;;;;;;;;;;;;;;18.74;48.08;101077.56;5110110;28;19924;-56
2023/01/07 06:22:43;;;;;;;;;;;;;;;18.73;48.02;101082.22;5110003;28;19934;-56
2023/01/07 06:25:10;;;;;;;;;;;;;;;18.73;48.11;101084.97;5091298;28;19928;-56
2023/01/07 06:27:36;;;;;;;;;;;;;;;18.73;48.05;101079.47;5112427;27;19927;-56
2023/01/07 06:30:03;;;;;;;;;;;;;;;18.73;48.11;101082.22;5113369;28;19923;-56
2023/01/07 06:32:28;;;;;;;;;;;;;;;18.73;48.06;101079.47;5130128;28;19977;-56
2023/01/07 06:34:54;;;;;;;;;;;;;;;18.73;48.28;101076.72;5129935;28;19923;-56
2023/01/07 06:37:19;;;;;;;;;;;;;;;18.73;48.20;101075.88;5113700;28;20074;-56
2023/01/07 06:39:45;;;;;;;;;;;;;;;18.73;48.07;101070.38;5109921;28;19928;-56
2023/01/07 06:42:10;;;;;;;;;;;;;;;18.72;48.04;101066.78;5109961;28;19928;-56
2023/01/07 06:44:36;;;;;;;;;;;;;;;18.72;48.09;101064.03;5109454;28;19928;-56
2023/01/07 06:47:01;;;;;;;;;;;;;;;18.73;48.19;101059.31;5109448;28;19923;-57
2023/01/07 06:49:27;;;;;;;;;;;;;;;18.74;48.06;101063.78;5109716;28;19923;-56
2023/01/07 06:51:53;;;;;;;;;;;;;;;18.73;48.24;101062.91;5109876;28;19927;-56
2023/01/07 06:54:18;;;;;;;;;;;;;;;18.73;48.07;101051.06;5109385;28;19976;-56
2023/01/07 06:56:44;;;;;;;;;;;;;;;18.73;48.13;101056.56;5109500;28;19924;-56
2023/01/07 06:59:09;;;;;;;;;;;;;;;18.73;48.12;101048.28;5120633;28;19935;-56
2023/01/07 07:01:35;;;;;;;;;;;;;;;18.73;48.19;101048.28;5129975;28;20001;-56
2023/01/07 07:04:01;;;;;;;;;;;;;;;18.73;48.31;101043.59;5130898;27;20437;-56
2023/01/07 07:06:26;;;;;;;;;;;;;;;18.73;47.98;101043.59;5124210;28;19924;-56
2023/01/07 07:08:52;;;;;;;;;;;;;;;18.73;48.19;101046.34;5113107;28;19947;-56
2023/01/07 07:11:18;;;;;;;;;;;;;;;18.73;48.08;101042.78;5112706;28;19931;-56
2023/01/07 07:13:43;;;;;;;;;;;;;;;18.73;48.10;101040.84;5112411;28;19924;-56
2023/01/07 07:16:09;;;;;;;;;;;;;;;18.73;48.46;101040.84;5112615;28;20391;-52
2023/01/07 07:18:34;;;;;;;;;;;;;;;18.72;48.29;101033.69;5112856;28;19923;-56
2023/01/07 07:21:00;;;;;;;;;;;;;;;18.73;48.13;101035.31;5112848;28;20334;-56
2023/01/07 07:23:26;;;;;;;;;;;;;;;18.73;48.05;101040.84;5111691;28;19928;-56
2023/01/07 07:25:51;;;;;;;;;;;;;;;18.74;48.31;101041.69;5116272;27;19924;-56
2023/01/07 07:28:17;;;;;;;;;;;;;;;18.73;48.34;101038.09;5142489;27;19931;-56
2023/01/07 07:30:42;;;;;;;;;;;;;;;18.73;48.04;101027.03;5133146;27;19923;-56
2023/01/07 07:33:13;;;;;;;;;;;;;;;18.73;48.17;101034.50;5133065;28;19962;-56
2023/01/07 07:35:39;;;;;;;;;;;;;;;18.73;48.06;101028.97;5130554;28;19927;-56
2023/01/07 07:38:04;;;;;;;;;;;;;;;18.73;48.06;101024.28;5094136;28;19927;-56
2023/01/07 07:40:30;;;;;;;;;;;;;;;18.72;48.21;101028.16;5112773;28;19934;-56
2023/01/07 07:42:58;;;;;;;;;;;;;;;18.73;48.23;101024.28;5112572;28;19927;-56
2023/01/07 07:45:38;;;;;;;;;;;;;;;18.73;48.08;101018.78;5111883;28;19924;-56
2023/01/07 07:48:04;;;;;;;;;;;;;;;18.73;48.33;101018.78;5112448;28;20268;-56
2023/01/07 07:50:30;;;;;;;;;;;;;;;18.73;48.02;101020.72;5094125;28;19955;-56
2023/01/07 07:56:49;;;;;;;;;;;;;;;18.74;48.06;101023.22;5110436;28;19931;-56
2023/01/07 07:59:14;;;;;;;;;;;;;;;18.73;48.14;101013.25;5123732;28;20383;-56
2023/01/07 08:01:40;;;;;;;;;;;;;;;18.73;48.08;101007.72;5132781;28;19928;-56
2023/01/07 08:04:05;;;;;;;;;;;;;;;18.72;48.08;101008.84;5132477;27;19980;-56
2023/01/07 08:06:33;;;;;;;;;;;;;;;18.72;48.17;101008.84;5122689;28;19923;-56
2023/01/07 08:08:58;;;;;;;;;;;;;;;18.73;48.13;101004.97;5112248;28;19959;-56
2023/01/07 08:11:24;;;;;;;;;;;;;;;18.72;48.40;101000.56;5112077;28;19924;-56
2023/01/07 08:13:49;;;;;;;;;;;;;;;18.73;48.34;100998.63;5111862;28;19935;-56
2023/01/07 08:16:15;;;;;;;;;;;;;;;18.73;48.39;101007.72;5111417;28;20387;-56
2023/01/07 08:18:41;;;;;;;;;;;;;;;18.73;48.30;100993.94;5111914;28;19923;-56
2023/01/07 08:21:06;;;;;;;;;;;;;;;18.73;48.12;100996.69;5112079;28;19924;-56
2023/01/07 08:23:33;;;;;;;;;;;;;;;18.73;48.14;101001.41;5111765;28;19935;-56
2023/01/07 08:25:59;;;;;;;;;;;;;;;18.73;48.20;100999.47;5095105;27;20435;-55
2023/01/07 08:28:25;;;;;;;;;;;;;;;18.73;48.39;100993.94;5098494;28;19970;-56
2023/01/07 08:30:50;;;;;;;;;;;;;;;18.73;48.33;100996.69;5141542;27;19927;-56
2023/01/07 08:33:16;;;;;;;;;;;;;;;18.73;48.10;100999.47;5152761;27;20295;-56
2023/01/07 08:35:42;;;;;;;;;;;;;;;18.73;48.17;100991.19;5149343;27;19923;-56
2023/01/07 08:38:08;;;;;;;;;;;;;;;18.73;48.19;100982.91;5132393;28;20688;-56
2023/01/07 08:40:34;;;;;;;;;;;;;;;18.73;48.02;100982.91;5132269;28;19930;-56
2023/01/07 08:43:00;;;;;;;;;;;;;;;18.72;48.04;100981.25;5132162;28;20048;-56
2023/01/07 08:45:26;;;;;;;;;;;;;;;18.73;48.28;100982.91;5131852;28;19923;-56
2023/01/07 08:47:51;;;;;;;;;;;;;;;18.73;48.11;100971.03;5113390;28;19939;-56
2023/01/07 08:50:18;;;;;;;;;;;;;;;18.73;48.14;100971.03;5131847;28;19965;-56
2023/01/07 08:52:45;;;;;;;;;;;;;;;18.73;48.24;100963.59;5132084;28;20367;-56
2023/01/07 08:55:10;;;;;;;;;;;;;;;18.74;48.21;100969.97;5131513;28;20280;-56
2023/01/07 08:57:36;;;;;;;;;;;;;;;18.74;48.20;100969.97;5131488;28;19924;-56
2023/01/07 09:00:02;;;;;;;;;;;;;;;18.73;48.38;100969.13;5131328;28;19927;-56
2023/01/07 09:02:27;;;;;;;;;;;;;;;18.73;48.03;100971.88;5131591;28;19962;-56
2023/01/07 09:04:53;;;;;;;;;;;;;;;18.73;48.05;100969.13;5131461;28;19924;-56
2023/01/07 09:07:18;;;;;;;;;;;;;;;18.73;48.13;100969.13;5131596;28;20086;-56
2023/01/07 09:09:44;;;;;;;;;;;;;;;18.72;48.17;100961.94;5131707;28;20432;-56
2023/01/07 09:12:09;;;;;;;;;;;;;;;18.74;48.21;100958.94;5131669;28;19931;-56
2023/01/07 09:14:36;;;;;;;;;;;;;;;18.74;48.26;100953.41;5131423;28;19938;-56
2023/01/07 09:17:02;;;;;;;;;;;;;;;18.74;48.33;100957.00;5131306;28;19923;-56
2023/01/07 09:19:27;;;;;;;;;;;;;;;18.73;48.05;100952.56;5113106;28;19927;-56
2023/01/07 09:21:53;;;;;;;;;;;;;;;18.73;48.32;100951.75;5131499;28;19923;-56
2023/01/07 09:24:18;;;;;;;;;;;;;;;18.73;48.05;100948.97;5130809;27;20104;-56
2023/01/07 09:26:44;;;;;;;;;;;;;;;18.73;48.07;100944.28;5115213;27;19946;-55
2023/01/07 09:29:09;;;;;;;;;;;;;;;18.73;48.31;100943.47;5121605;28;19923;-56
2023/01/07 09:31:35;;;;;;;;;;;;;;;18.73;48.55;100944.28;5131294;27;19928;-56
2023/01/07 09:34:00;;;;;;;;;;;;;;;18.74;48.40;100950.66;5146299;27;19927;-56
2023/01/07 09:36:26;;;;;;;;;;;;;;;18.74;48.19;100945.13;5142202;27;19943;-56
2023/01/07 09:38:52;;;;;;;;;;;;;;;18.74;48.24;100939.63;5131085;28;20252;-56
2023/01/07 09:41:38;;;;;;;;;;;;;;;18.73;48.07;100944.28;5112775;28;19964;-56
2023/01/07 09:44:09;;;;;;;;;;;;;;;18.73;48.31;100940.69;5115644;28;19924;-56
2023/01/07 09:46:34;;;;;;;;;;;;;;;18.74;48.01;100926.66;5131049;28;19928;-56
2023/01/07 09:49:01;;;;;;;;;;;;;;;18.73;48.04;100922.22;5130779;28;19931;-56
2023/01/07 09:51:34;;;;;;;;;;;;;;;18.74;48.06;100923.06;5112536;28;19993;-56
2023/01/07 09:54:00;;;;;;;;;;;;;;;18.73;48.12;100918.63;5130080;28;19923;-56
2023/01/07 09:56:27;;;;;;;;;;;;;;;18.74;48.39;100928.59;5111725;28;19924;-56
2023/01/07 09:58:53;;;;;;;;;;;;;;;18.74;48.07;100917.56;5130002;28;20252;-56
2023/01/07 10:01:25;;;;;;;;;;;;;;;18.74;48.33;100923.06;5130930;28;19976;-56
2023/01/07 10:03:57;;;;;;;;;;;;;;;18.74;48.38;100925.81;5130428;28;19930;-56
2023/01/07 10:06:29;;;;;;;;;;;;;;;18.73;48.14;100915.88;5130588;28;19923;-56
2023/01/07 10:09:28;;;;;;;;;;;;;;;18.74;48.05;100909.28;5130475;28;20610;-56
2023/01/07 10:12:12;;;;;;;;;;;;;;;18.74;48.23;100901.00;5130699;28;19927;-55
2023/01/07 10:14:48;;;;;;;;;;;;;;;18.74;48.16;100895.47;5111779;28;20345;-56
2023/01/07 10:17:20;;;;;;;;;;;;;;;18.73;48.10;100891.88;5130419;28;19933;-56
2023/01/07 10:19:49;;;;;;;;;;;;;;;18.73;48.03;100878.06;5130712;28;19963;-56
2023/01/07 10:22:16;;;;;;;;;;;;;;;18.74;48.38;100888.03;5130573;28;19927;-56
2023/01/07 10:24:43;;;;;;;;;;;;;;;18.73;48.20;100878.06;5130208;27;19928;-56
2023/01/07 10:27:09;;;;;;;;;;;;;;;18.72;48.04;100881.94;5130436;28;19951;-56
2023/01/07 10:29:36;;;;;;;;;;;;;;;18.73;48.25;100883.59;5111268;28;19923;-56
2023/01/07 10:32:04;;;;;;;;;;;;;;;18.74;48.15;100881.69;5130554;28;20359;-56
2023/01/07 10:34:31;;;;;;;;;;;;;;;18.74;48.11;100873.41;5130395;27;19971;-56
2023/01/07 10:37:17;;;;;;;;;;;;;;;18.75;48.05;100866.78;5117204;28;19931;-56
2023/01/07 10:39:44;;;;;;;;;;;;;;;18.74;48.08;100859.63;5096199;28;20326;-56
2023/01/07 10:42:15;;;;;;;;;;;;;;;18.74;48.38;100851.34;5113584;28;20454;-56
2023/01/07 10:45:01;;;;;;;;;;;;;;;18.74;48.12;100843.06;5094831;28;20401;-56
2023/01/07 10:47:46;;;;;;;;;;;;;;;18.74;48.15;100837.53;5097934;28;19927;-56
2023/01/07 10:50:31;;;;;;;;;;;;;;;18.74;48.02;100826.50;5113345;28;19924;-56
2023/01/07 10:53:00;;;;;;;;;;;;;;;18.73;48.08;100817.38;5098009;28;19963;-56
2023/01/07 10:55:35;;;;;;;;;;;;;;;18.73;48.16;100809.09;5112897;28;19924;-56
2023/01/07 10:58:01;;;;;;;;;;;;;;;18.74;48.24;100805.25;5114331;28;19931;-56
2023/01/07 11:00:27;;;;;;;;;;;;;;;18.74;48.41;100798.94;5114902;28;19967;-56
2023/01/07 11:02:53;;;;;;;;;;;;;;;18.73;48.13;100789.78;5133467;27;19968;-56
2023/01/07 11:05:20;;;;;;;;;;;;;;;18.73;48.04;100792.56;5114987;28;20084;-56
2023/01/07 11:07:46;;;;;;;;;;;;;;;18.73;48.43;100792.56;5113623;28;20359;-56
2023/01/07 11:10:16;;;;;;;;;;;;;;;18.74;48.19;100790.66;5112891;28;19924;-55
2023/01/07 11:12:44;;;;;;;;;;;;;;;18.74;48.15;100776.84;5094810;28;20375;-56
2023/01/07 11:15:13;;;;;;;;;;;;;;;18.74;48.12;100776.84;5112778;28;19923;-56
2023/01/07 11:17:40;;;;;;;;;;;;;;;18.73;48.06;100759.44;5112676;28;19970;-56
2023/01/07 11:20:06;;;;;;;;;;;;;;;18.74;48.13;100771.34;5113089;28;19978;-56
2023/01/07 11:22:32;;;;;;;;;;;;;;;18.74;48.38;100763.06;5112501;28;20316;-56
2023/01/07 11:24:58;;;;;;;;;;;;;;;18.73;48.33;100744.84;5108573;27;20291;-56
2023/01/07 11:27:25;;;;;;;;;;;;;;;18.73;48.21;100740.13;5101325;28;20090;-56
2023/01/07 11:29:59;;;;;;;;;;;;;;;18.75;48.09;100737.13;5129512;28;20288;-56
2023/01/07 11:32:26;;;;;;;;;;;;;;;18.74;48.17;100735.47;5114808;28;19993;-56
2023/01/07 11:34:58;;;;;;;;;;;;;;;18.74;48.03;100727.19;5114052;28;19934;-56
2023/01/07 11:37:39;;;;;;;;;;;;;;;18.73;48.23;100720.81;5124085;28;19924;-56
2023/01/07 11:40:15;;;;;;;;;;;;;;;18.73;48.20;100712.56;5131770;28;19976;-56
2023/01/07 11:45:24;;;;;;;;;;;;;;;18.74;48.25;100708.72;5190203;27;19933;-56
2023/01/07 11:47:58;;;;;;;;;;;;;;;18.74;48.23;100705.13;5188137;27;20133;-55
2023/01/07 11:50:26;;;;;;;;;;;;;;;18.73;48.34;100698.75;5189911;27;19962;-56
2023/01/07 11:52:59;;;;;;;;;;;;;;;18.73;48.23;100698.75;5170918;27;20363;-56
2023/01/07 11:55:25;;;;;;;;;;;;;;;18.74;48.43;100694.09;5189459;27;19922;-56
2023/01/07 11:57:51;;;;;;;;;;;;;;;18.74;48.14;100688.56;5170771;27;20077;-56
2023/01/07 12:00:17;;;;;;;;;;;;;;;18.74;48.32;100688.56;5189421;27;20014;-56
2023/01/07 12:02:43;;;;;;;;;;;;;;;18.74;48.34;100677.53;5183224;27;19923;-56
2023/01/07 12:05:17;;;;;;;;;;;;;;;18.74;48.25;100672.84;5168470;27;20279;-56
2023/01/07 12:07:44;;;;;;;;;;;;;;;18.73;47.97;100664.84;5149855;27;19926;-56
2023/01/07 12:10:26;;;;;;;;;;;;;;;18.74;48.03;100656.28;5168030;27;20371;-56
2023/01/07 12:12:51;;;;;;;;;;;;;;;18.74;48.05;100645.25;5149910;27;19923;-56
2023/01/07 12:15:18;;;;;;;;;;;;;;;18.73;48.03;100649.09;5149585;27;20394;-56
2023/01/07 12:17:45;;;;;;;;;;;;;;;18.73;48.07;100632.56;5167398;27;19982;-56
2023/01/07 12:23:00;;;;;;;;;;;;;;;18.73;48.37;100635.31;5189741;27;20503;-56
2023/01/07 12:25:31;;;;;;;;;;;;;;;18.74;48.22;100633.41;5205171;27;19926;-56
2023/01/07 12:28:15;;;;;;;;;;;;;;;18.73;48.28;100632.56;5170027;27;19923;-55
2023/01/07 12:31:00;;;;;;;;;;;;;;;18.74;48.03;100633.41;5170790;27;20397;-56
2023/01/07 12:33:30;;;;;;;;;;;;;;;18.74;48.30;100622.38;5173907;27;19930;-56
2023/01/07 12:35:56;;;;;;;;;;;;;;;18.74;48.27;100614.91;5185254;27;19966;-56
2023/01/07 12:38:24;;;;;;;;;;;;;;;18.74;48.21;100619.63;5173400;27;20441;-56
2023/01/07 12:40:52;;;;;;;;;;;;;;;18.75;48.01;100618.50;5189841;27;19995;-56
2023/01/07 12:43:24;;;;;;;;;;;;;;;18.75;48.03;100612.97;5189437;27;19929;-56
2023/01/07 12:45:52;;;;;;;;;;;;;;;18.74;48.25;100609.41;5184002;27;19930;-55
2023/01/07 12:48:21;;;;;;;;;;;;;;;18.75;48.04;100601.94;5168469;27;19923;-56
2023/01/07 12:50:47;;;;;;;;;;;;;;;18.74;48.34;100598.38;5168296;27;20635;-56